sensor_id;sensor_type;location;lat;lon;timestamp;pressure;altitude;pressure_sealevel;temperature;humidity
75521;BME280;64102;48.628;9.002;2023-01-15T00:02:04;94956.53;;;7.59;88.84
75521;BME280;64102;48.628;9.002;2023-01-15T00:04:30;94939.41;;;7.68;88.80
75521;BME280;64102;48.628;9.002;2023-01-15T00:06:55;94936.06;;;7.68;88.74
75521;BME280;64102;48.628;9.002;2023-01-15T00:09:20;94939.28;;;7.70;88.20
75521;BME280;64102;48.628;9.002;2023-01-15T00:11:46;94924.00;;;7.68;89.16
75521;BME280;64102;48.628;9.002;2023-01-15T00:14:11;94926.59;;;7.68;88.98
75521;BME280;64102;48.628;9.002;2023-01-15T00:16:37;94929.38;;;7.75;88.60
75521;BME280;64102;48.628;9.002;2023-01-15T00:19:05;94930.22;;;7.83;88.04
75521;BME280;64102;48.628;9.002;2023-01-15T00:21:32;94932.81;;;7.83;88.19
75521;BME280;64102;48.628;9.002;2023-01-15T00:23:58;94918.66;;;7.79;88.91
75521;BME280;64102;48.628;9.002;2023-01-15T00:26:42;94909.81;;;7.82;88.84
75521;BME280;64102;48.628;9.002;2023-01-15T00:29:26;94907.13;;;7.83;88.22
75521;BME280;64102;48.628;9.002;2023-01-15T00:32:04;94913.56;;;7.87;87.92
75521;BME280;64102;48.628;9.002;2023-01-15T00:34:30;94897.06;;;7.90;87.40
75521;BME280;64102;48.628;9.002;2023-01-15T00:36:57;94899.09;;;7.86;88.40
75521;BME280;64102;48.628;9.002;2023-01-15T00:39:54;94890.13;;;7.90;87.52
75521;BME280;64102;48.628;9.002;2023-01-15T00:42:19;94880.84;;;7.89;87.13
75521;BME280;64102;48.628;9.002;2023-01-15T00:44:45;94886.03;;;7.97;86.31
75521;BME280;64102;48.628;9.002;2023-01-15T00:47:11;94890.03;;;8.00;85.78
75521;BME280;64102;48.628;9.002;2023-01-15T00:49:40;94883.94;;;8.01;85.90
75521;BME280;64102;48.628;9.002;2023-01-15T00:52:05;94878.94;;;7.99;85.83
75521;BME280;64102;48.628;9.002;2023-01-15T00:54:30;94875.75;;;7.97;85.95
75521;BME280;64102;48.628;9.002;2023-01-15T00:56:57;94869.25;;;8.11;84.71
75521;BME280;64102;48.628;9.002;2023-01-15T00:59:23;94876.44;;;8.07;85.57
75521;BME280;64102;48.628;9.002;2023-01-15T01:01:48;94878.03;;;8.08;84.84
75521;BME280;64102;48.628;9.002;2023-01-15T01:04:14;94867.28;;;8.05;85.06
75521;BME280;64102;48.628;9.002;2023-01-15T01:06:39;94865.81;;;8.02;85.04
75521;BME280;64102;48.628;9.002;2023-01-15T01:09:04;94859.56;;;8.05;85.38
75521;BME280;64102;48.628;9.002;2023-01-15T01:11:30;94848.03;;;8.09;84.73
75521;BME280;64102;48.628;9.002;2023-01-15T01:13:59;94852.53;;;8.07;84.85
75521;BME280;64102;48.628;9.002;2023-01-15T01:16:36;94848.81;;;8.09;84.88
75521;BME280;64102;48.628;9.002;2023-01-15T01:19:07;94846.84;;;8.03;85.36
75521;BME280;64102;48.628;9.002;2023-01-15T01:21:34;94835.63;;;8.04;85.19
75521;BME280;64102;48.628;9.002;2023-01-15T01:24:00;94833.38;;;8.01;85.70
75521;BME280;64102;48.628;9.002;2023-01-15T01:26:27;94835.28;;;7.99;86.25
75521;BME280;64102;48.628;9.002;2023-01-15T01:28:53;94841.72;;;8.03;85.29
75521;BME280;64102;48.628;9.002;2023-01-15T01:31:20;94835.81;;;8.03;86.07
75521;BME280;64102;48.628;9.002;2023-01-15T01:33:54;94847.66;;;8.04;86.04
75521;BME280;64102;48.628;9.002;2023-01-15T01:36:25;94849.44;;;8.03;86.31
75521;BME280;64102;48.628;9.002;2023-01-15T01:38:51;94846.25;;;8.09;85.73
75521;BME280;64102;48.628;9.002;2023-01-15T01:41:17;94834.00;;;8.03;86.54
75521;BME280;64102;48.628;9.002;2023-01-15T01:43:57;94830.22;;;8.07;86.20
75521;BME280;64102;48.628;9.002;2023-01-15T01:46:24;94829.09;;;8.10;86.25
75521;BME280;64102;48.628;9.002;2023-01-15T01:48:51;94822.50;;;8.07;86.88
75521;BME280;64102;48.628;9.002;2023-01-15T01:51:21;94824.59;;;8.12;86.66
75521;BME280;64102;48.628;9.002;2023-01-15T01:53:49;94825.25;;;8.14;86.01
75521;BME280;64102;48.628;9.002;2023-01-15T01:56:15;94826.41;;;8.20;85.84
75521;BME280;64102;48.628;9.002;2023-01-15T01:58:53;94825.13;;;8.24;85.86
75521;BME280;64102;48.628;9.002;2023-01-15T02:01:21;94821.56;;;8.17;86.59
75521;BME280;64102;48.628;9.002;2023-01-15T02:03:48;94806.00;;;8.26;86.93
75521;BME280;64102;48.628;9.002;2023-01-15T02:06:14;94800.09;;;8.26;86.34
75521;BME280;64102;48.628;9.002;2023-01-15T02:08:40;94784.88;;;8.32;87.11
75521;BME280;64102;48.628;9.002;2023-01-15T02:11:10;94788.09;;;8.34;86.53
75521;BME280;64102;48.628;9.002;2023-01-15T02:13:45;94787.13;;;8.35;86.28
75521;BME280;64102;48.628;9.002;2023-01-15T02:18:55;94770.59;;;8.38;86.21
75521;BME280;64102;48.628;9.002;2023-01-15T02:21:30;94786.16;;;8.36;86.67
75521;BME280;64102;48.628;9.002;2023-01-15T02:26:59;94778.31;;;8.46;85.44
75521;BME280;64102;48.628;9.002;2023-01-15T02:32:20;94762.41;;;8.42;85.85
75521;BME280;64102;48.628;9.002;2023-01-15T02:34:52;94760.81;;;8.49;85.18
75521;BME280;64102;48.628;9.002;2023-01-15T02:37:26;94761.47;;;8.60;85.04
75521;BME280;64102;48.628;9.002;2023-01-15T02:39:55;94769.81;;;8.62;85.46
75521;BME280;64102;48.628;9.002;2023-01-15T02:42:23;94774.66;;;8.65;85.07
75521;BME280;64102;48.628;9.002;2023-01-15T02:44:52;94758.91;;;8.68;84.38
75521;BME280;64102;48.628;9.002;2023-01-15T02:47:23;94755.84;;;8.72;84.41
75521;BME280;64102;48.628;9.002;2023-01-15T02:49:51;94744.28;;;8.76;84.26
75521;BME280;64102;48.628;9.002;2023-01-15T02:52:23;94752.97;;;8.83;84.08
75521;BME280;64102;48.628;9.002;2023-01-15T02:54:55;94754.25;;;8.79;84.37
75521;BME280;64102;48.628;9.002;2023-01-15T02:57:25;94736.25;;;8.79;84.99
75521;BME280;64102;48.628;9.002;2023-01-15T02:59:53;94734.97;;;8.83;84.80
75521;BME280;64102;48.628;9.002;2023-01-15T03:02:26;94732.69;;;8.80;85.10
75521;BME280;64102;48.628;9.002;2023-01-15T03:05:06;94742.69;;;8.83;84.79
75521;BME280;64102;48.628;9.002;2023-01-15T03:07:54;94748.13;;;8.88;85.04
75521;BME280;64102;48.628;9.002;2023-01-15T03:10:32;94740.41;;;9.13;83.38
75521;BME280;64102;48.628;9.002;2023-01-15T03:13:01;94733.44;;;9.37;81.87
75521;BME280;64102;48.628;9.002;2023-01-15T03:18:27;94717.72;;;9.79;80.45
75521;BME280;64102;48.628;9.002;2023-01-15T03:20:58;94722.53;;;9.82;80.83
75521;BME280;64102;48.628;9.002;2023-01-15T03:23:25;94722.88;;;9.79;80.15
75521;BME280;64102;48.628;9.002;2023-01-15T03:25:51;94720.75;;;9.83;80.06
75521;BME280;64102;48.628;9.002;2023-01-15T03:28:23;94730.25;;;9.82;80.17
75521;BME280;64102;48.628;9.002;2023-01-15T03:30:50;94723.63;;;9.88;79.27
75521;BME280;64102;48.628;9.002;2023-01-15T03:33:16;94727.53;;;9.84;80.02
75521;BME280;64102;48.628;9.002;2023-01-15T03:35:48;94725.75;;;9.84;80.31
75521;BME280;64102;48.628;9.002;2023-01-15T03:38:18;94722.88;;;9.79;80.01
75521;BME280;64102;48.628;9.002;2023-01-15T03:46:37;94721.41;;;9.85;80.42
75521;BME280;64102;48.628;9.002;2023-01-15T03:52:18;94711.94;;;9.77;80.82
75521;BME280;64102;48.628;9.002;2023-01-15T03:54:49;94716.59;;;9.74;81.13
75521;BME280;64102;48.628;9.002;2023-01-15T03:57:47;94716.72;;;9.41;83.11
75521;BME280;64102;48.628;9.002;2023-01-15T04:00:26;94709.50;;;9.29;82.91
75521;BME280;64102;48.628;9.002;2023-01-15T04:02:56;94713.38;;;9.17;83.47
75521;BME280;64102;48.628;9.002;2023-01-15T04:05:24;94719.50;;;9.16;84.05
75521;BME280;64102;48.628;9.002;2023-01-15T04:07:51;94702.13;;;9.18;84.08
75521;BME280;64102;48.628;9.002;2023-01-15T04:10:18;94714.34;;;9.16;83.73
75521;BME280;64102;48.628;9.002;2023-01-15T04:12:43;94704.69;;;9.18;83.29
75521;BME280;64102;48.628;9.002;2023-01-15T04:15:10;94707.06;;;9.35;82.74
75521;BME280;64102;48.628;9.002;2023-01-15T04:17:36;94704.00;;;9.40;82.42
75521;BME280;64102;48.628;9.002;2023-01-15T04:20:01;94697.22;;;9.55;81.30
75521;BME280;64102;48.628;9.002;2023-01-15T04:22:26;94684.13;;;9.65;81.20
75521;BME280;64102;48.628;9.002;2023-01-15T04:24:52;94673.50;;;9.60;81.80
75521;BME280;64102;48.628;9.002;2023-01-15T04:27:19;94670.78;;;9.61;81.63
75521;BME280;64102;48.628;9.002;2023-01-15T04:29:44;94672.81;;;9.35;83.14
75521;BME280;64102;48.628;9.002;2023-01-15T04:32:10;94691.47;;;9.29;83.38
75521;BME280;64102;48.628;9.002;2023-01-15T04:34:35;94696.63;;;9.29;83.19
75521;BME280;64102;48.628;9.002;2023-01-15T04:37:01;94699.03;;;9.30;83.37
75521;BME280;64102;48.628;9.002;2023-01-15T04:39:26;94693.25;;;9.20;84.10
75521;BME280;64102;48.628;9.002;2023-01-15T04:41:51;94702.28;;;9.16;84.50
75521;BME280;64102;48.628;9.002;2023-01-15T04:44:36;94693.75;;;9.24;84.22
75521;BME280;64102;48.628;9.002;2023-01-15T04:47:01;94687.50;;;9.18;84.57
75521;BME280;64102;48.628;9.002;2023-01-15T04:49:27;94699.25;;;9.13;84.81
75521;BME280;64102;48.628;9.002;2023-01-15T04:51:52;94696.03;;;9.03;85.22
75521;BME280;64102;48.628;9.002;2023-01-15T04:54:18;94698.59;;;9.03;85.33
75521;BME280;64102;48.628;9.002;2023-01-15T04:56:46;94698.13;;;8.99;86.21
75521;BME280;64102;48.628;9.002;2023-01-15T04:59:14;94701.50;;;8.99;85.52
75521;BME280;64102;48.628;9.002;2023-01-15T05:01:40;94685.91;;;9.01;85.06
75521;BME280;64102;48.628;9.002;2023-01-15T05:04:06;94694.25;;;9.11;84.95
75521;BME280;64102;48.628;9.002;2023-01-15T05:06:32;94694.84;;;9.29;82.40
75521;BME280;64102;48.628;9.002;2023-01-15T05:08:58;94709.13;;;9.48;81.72
75521;BME280;64102;48.628;9.002;2023-01-15T05:11:24;94696.19;;;9.72;80.22
75521;BME280;64102;48.628;9.002;2023-01-15T05:13:49;94697.75;;;9.81;79.57
75521;BME280;64102;48.628;9.002;2023-01-15T05:16:17;94693.41;;;9.82;79.65
75521;BME280;64102;48.628;9.002;2023-01-15T05:18:44;94695.00;;;9.83;79.09
75521;BME280;64102;48.628;9.002;2023-01-15T05:21:18;94689.19;;;9.89;79.01
75521;BME280;64102;48.628;9.002;2023-01-15T05:23:45;94691.28;;;9.85;79.04
75521;BME280;64102;48.628;9.002;2023-01-15T05:26:10;94702.91;;;9.81;79.50
75521;BME280;64102;48.628;9.002;2023-01-15T05:28:36;94700.34;;;9.73;80.08
75521;BME280;64102;48.628;9.002;2023-01-15T05:31:10;94691.19;;;9.71;80.69
75521;BME280;64102;48.628;9.002;2023-01-15T05:33:36;94692.34;;;9.68;80.68
75521;BME280;64102;48.628;9.002;2023-01-15T05:36:04;94687.00;;;9.70;79.98
75521;BME280;64102;48.628;9.002;2023-01-15T05:38:29;94699.41;;;9.66;80.93
75521;BME280;64102;48.628;9.002;2023-01-15T05:40:55;94731.47;;;9.64;81.15
75521;BME280;64102;48.628;9.002;2023-01-15T05:43:20;94740.72;;;9.18;80.62
75521;BME280;64102;48.628;9.002;2023-01-15T05:45:46;94762.97;;;8.28;85.61
75521;BME280;64102;48.628;9.002;2023-01-15T05:48:11;94760.97;;;7.64;88.06
75521;BME280;64102;48.628;9.002;2023-01-15T05:50:36;94755.00;;;7.30;89.65
75521;BME280;64102;48.628;9.002;2023-01-15T05:53:02;94768.38;;;7.15;91.65
75521;BME280;64102;48.628;9.002;2023-01-15T05:55:27;94768.56;;;6.96;91.61
75521;BME280;64102;48.628;9.002;2023-01-15T05:57:52;94768.38;;;6.72;91.46
75521;BME280;64102;48.628;9.002;2023-01-15T06:00:18;94780.72;;;6.41;92.43
75521;BME280;64102;48.628;9.002;2023-01-15T06:02:47;94793.75;;;6.30;92.59
75521;BME280;64102;48.628;9.002;2023-01-15T06:05:13;94786.69;;;6.14;92.87
75521;BME280;64102;48.628;9.002;2023-01-15T06:07:38;94791.81;;;6.14;93.41
75521;BME280;64102;48.628;9.002;2023-01-15T06:10:04;94781.88;;;6.11;93.52
75521;BME280;64102;48.628;9.002;2023-01-15T06:12:31;94779.56;;;6.08;93.31
75521;BME280;64102;48.628;9.002;2023-01-15T06:14:56;94789.88;;;5.99;93.92
75521;BME280;64102;48.628;9.002;2023-01-15T06:17:22;94783.03;;;5.90;93.13
75521;BME280;64102;48.628;9.002;2023-01-15T06:19:47;94789.78;;;5.81;93.49
75521;BME280;64102;48.628;9.002;2023-01-15T06:22:12;94792.66;;;5.68;93.86
75521;BME280;64102;48.628;9.002;2023-01-15T06:24:37;94792.53;;;5.70;93.10
75521;BME280;64102;48.628;9.002;2023-01-15T06:27:03;94793.75;;;5.66;92.75
75521;BME280;64102;48.628;9.002;2023-01-15T06:29:28;94817.88;;;5.63;93.11
75521;BME280;64102;48.628;9.002;2023-01-15T06:31:54;94810.59;;;5.59;93.49
75521;BME280;64102;48.628;9.002;2023-01-15T06:34:20;94818.28;;;5.59;93.31
75521;BME280;64102;48.628;9.002;2023-01-15T06:36:50;94819.66;;;5.53;93.64
75521;BME280;64102;48.628;9.002;2023-01-15T06:39:15;94810.91;;;5.46;93.85
75521;BME280;64102;48.628;9.002;2023-01-15T06:41:40;94826.56;;;5.43;93.95
75521;BME280;64102;48.628;9.002;2023-01-15T06:44:24;94830.03;;;5.42;94.47
75521;BME280;64102;48.628;9.002;2023-01-15T06:47:16;94833.31;;;5.34;95.23
75521;BME280;64102;48.628;9.002;2023-01-15T06:49:45;94841.09;;;5.33;94.58
75521;BME280;64102;48.628;9.002;2023-01-15T06:52:11;94855.63;;;5.32;93.91
75521;BME280;64102;48.628;9.002;2023-01-15T06:54:36;94863.59;;;5.29;95.04
75521;BME280;64102;48.628;9.002;2023-01-15T06:57:02;94851.09;;;5.26;94.26
75521;BME280;64102;48.628;9.002;2023-01-15T06:59:28;94857.56;;;5.21;94.49
75521;BME280;64102;48.628;9.002;2023-01-15T07:01:53;94868.06;;;5.18;94.08
75521;BME280;64102;48.628;9.002;2023-01-15T07:04:19;94881.09;;;5.05;95.10
75521;BME280;64102;48.628;9.002;2023-01-15T07:06:44;94880.28;;;5.05;94.86
75521;BME280;64102;48.628;9.002;2023-01-15T07:09:09;94887.16;;;5.04;94.84
75521;BME280;64102;48.628;9.002;2023-01-15T07:11:35;94890.91;;;5.00;93.36
75521;BME280;64102;48.628;9.002;2023-01-15T07:14:17;94897.09;;;4.97;92.93
75521;BME280;64102;48.628;9.002;2023-01-15T07:16:43;94899.94;;;4.85;91.90
75521;BME280;64102;48.628;9.002;2023-01-15T07:19:08;94918.34;;;4.79;92.95
75521;BME280;64102;48.628;9.002;2023-01-15T07:21:33;94925.34;;;4.77;93.01
75521;BME280;64102;48.628;9.002;2023-01-15T07:23:59;94926.66;;;4.71;92.74
75521;BME280;64102;48.628;9.002;2023-01-15T07:26:26;94923.69;;;4.66;93.30
75521;BME280;64102;48.628;9.002;2023-01-15T07:28:51;94919.78;;;4.62;93.80
75521;BME280;64102;48.628;9.002;2023-01-15T07:31:16;94935.50;;;4.58;94.10
75521;BME280;64102;48.628;9.002;2023-01-15T07:33:42;94937.94;;;4.59;93.66
75521;BME280;64102;48.628;9.002;2023-01-15T07:36:09;94937.25;;;4.57;93.37
75521;BME280;64102;48.628;9.002;2023-01-15T07:38:35;94954.06;;;4.50;91.98
75521;BME280;64102;48.628;9.002;2023-01-15T07:41:00;94954.81;;;4.41;91.71
75521;BME280;64102;48.628;9.002;2023-01-15T07:43:44;94963.81;;;4.35;91.54
75521;BME280;64102;48.628;9.002;2023-01-15T07:46:28;94959.56;;;4.25;91.22
75521;BME280;64102;48.628;9.002;2023-01-15T07:49:12;94971.91;;;4.20;91.73
75521;BME280;64102;48.628;9.002;2023-01-15T07:51:57;94972.19;;;4.17;92.38
75521;BME280;64102;48.628;9.002;2023-01-15T07:54:22;94987.75;;;4.14;92.08
75521;BME280;64102;48.628;9.002;2023-01-15T07:56:49;95001.56;;;4.11;92.17
75521;BME280;64102;48.628;9.002;2023-01-15T07:59:15;94991.72;;;4.06;92.70
75521;BME280;64102;48.628;9.002;2023-01-15T08:01:40;95000.34;;;4.05;93.26
75521;BME280;64102;48.628;9.002;2023-01-15T08:04:06;95007.75;;;4.09;93.10
75521;BME280;64102;48.628;9.002;2023-01-15T08:06:31;95004.25;;;4.10;93.14
75521;BME280;64102;48.628;9.002;2023-01-15T08:08:56;95006.81;;;4.10;93.40
75521;BME280;64102;48.628;9.002;2023-01-15T08:11:22;95008.56;;;4.09;93.28
75521;BME280;64102;48.628;9.002;2023-01-15T08:14:07;95014.09;;;4.14;93.14
75521;BME280;64102;48.628;9.002;2023-01-15T08:16:52;95020.78;;;4.15;93.64
75521;BME280;64102;48.628;9.002;2023-01-15T08:19:17;95024.75;;;4.19;94.33
75521;BME280;64102;48.628;9.002;2023-01-15T08:21:42;95023.13;;;4.18;94.29
75521;BME280;64102;48.628;9.002;2023-01-15T08:24:08;95033.06;;;4.21;94.11
75521;BME280;64102;48.628;9.002;2023-01-15T08:26:33;95035.63;;;4.21;94.63
75521;BME280;64102;48.628;9.002;2023-01-15T08:28:58;95044.16;;;4.31;93.14
75521;BME280;64102;48.628;9.002;2023-01-15T08:31:24;95059.03;;;4.26;93.82
75521;BME280;64102;48.628;9.002;2023-01-15T08:33:49;95050.94;;;4.21;92.31
75521;BME280;64102;48.628;9.002;2023-01-15T08:36:15;95066.97;;;4.23;92.82
75521;BME280;64102;48.628;9.002;2023-01-15T08:38:42;95074.63;;;4.23;93.18
75521;BME280;64102;48.628;9.002;2023-01-15T08:41:07;95074.47;;;4.25;93.49
75521;BME280;64102;48.628;9.002;2023-01-15T08:43:33;95086.88;;;4.29;92.79
75521;BME280;64102;48.628;9.002;2023-01-15T08:46:01;95087.00;;;4.28;93.21
75521;BME280;64102;48.628;9.002;2023-01-15T08:48:27;95087.50;;;4.22;92.17
75521;BME280;64102;48.628;9.002;2023-01-15T08:50:53;95097.59;;;4.23;92.13
75521;BME280;64102;48.628;9.002;2023-01-15T08:53:19;95104.69;;;4.20;91.18
75521;BME280;64102;48.628;9.002;2023-01-15T08:55:45;95107.47;;;4.17;92.01
75521;BME280;64102;48.628;9.002;2023-01-15T08:58:11;95122.25;;;4.13;91.75
75521;BME280;64102;48.628;9.002;2023-01-15T09:00:37;95117.81;;;4.15;92.73
75521;BME280;64102;48.628;9.002;2023-01-15T09:03:02;95115.97;;;4.17;92.74
75521;BME280;64102;48.628;9.002;2023-01-15T09:05:28;95121.75;;;4.19;93.28
75521;BME280;64102;48.628;9.002;2023-01-15T09:07:54;95109.22;;;4.16;93.06
75521;BME280;64102;48.628;9.002;2023-01-15T09:10:19;95105.75;;;4.17;92.57
75521;BME280;64102;48.628;9.002;2023-01-15T09:12:45;95105.75;;;4.17;92.09
75521;BME280;64102;48.628;9.002;2023-01-15T09:15:11;95106.56;;;4.18;91.39
75521;BME280;64102;48.628;9.002;2023-01-15T09:17:37;95112.03;;;4.13;91.09
75521;BME280;64102;48.628;9.002;2023-01-15T09:20:08;95112.97;;;4.12;91.62
75521;BME280;64102;48.628;9.002;2023-01-15T09:22:34;95116.44;;;4.11;90.45
75521;BME280;64102;48.628;9.002;2023-01-15T09:24:59;95133.38;;;4.12;91.48
75521;BME280;64102;48.628;9.002;2023-01-15T09:27:26;95145.09;;;4.15;92.05
75521;BME280;64102;48.628;9.002;2023-01-15T09:29:51;95154.72;;;4.11;91.15
75521;BME280;64102;48.628;9.002;2023-01-15T09:32:17;95153.94;;;4.11;90.34
75521;BME280;64102;48.628;9.002;2023-01-15T09:34:42;95151.75;;;4.06;91.07
75521;BME280;64102;48.628;9.002;2023-01-15T09:37:08;95154.72;;;4.11;90.55
75521;BME280;64102;48.628;9.002;2023-01-15T09:39:33;95155.47;;;4.02;89.51
75521;BME280;64102;48.628;9.002;2023-01-15T09:42:22;95166.28;;;3.94;90.07
75521;BME280;64102;48.628;9.002;2023-01-15T09:47:28;95174.00;;;3.72;90.12
75521;BME280;64102;48.628;9.002;2023-01-15T09:55:34;95177.16;;;3.65;91.57
75521;BME280;64102;48.628;9.002;2023-01-15T09:58:04;95182.00;;;3.68;91.68
75521;BME280;64102;48.628;9.002;2023-01-15T10:00:39;95191.19;;;3.70;91.55
75521;BME280;64102;48.628;9.002;2023-01-15T10:06:01;95186.97;;;3.80;90.83
75521;BME280;64102;48.628;9.002;2023-01-15T10:08:33;95180.63;;;3.75;89.79
75521;BME280;64102;48.628;9.002;2023-01-15T10:11:28;95193.03;;;3.68;90.59
75521;BME280;64102;48.628;9.002;2023-01-15T10:14:17;95196.84;;;3.74;90.38
75521;BME280;64102;48.628;9.002;2023-01-15T10:16:45;95199.41;;;3.74;90.13
75521;BME280;64102;48.628;9.002;2023-01-15T10:19:10;95210.53;;;3.73;90.16
75521;BME280;64102;48.628;9.002;2023-01-15T10:22:01;95215.19;;;3.68;90.33
75521;BME280;64102;48.628;9.002;2023-01-15T10:24:38;95214.97;;;3.59;89.57
75521;BME280;64102;48.628;9.002;2023-01-15T10:27:13;95229.34;;;3.49;88.28
75521;BME280;64102;48.628;9.002;2023-01-15T10:29:48;95219.63;;;3.43;88.55
75521;BME280;64102;48.628;9.002;2023-01-15T10:35:15;95232.94;;;3.36;89.67
75521;BME280;64102;48.628;9.002;2023-01-15T10:43:47;95246.38;;;3.27;91.17
75521;BME280;64102;48.628;9.002;2023-01-15T10:46:23;95235.59;;;3.23;90.26
75521;BME280;64102;48.628;9.002;2023-01-15T10:48:55;95244.41;;;3.19;91.18
75521;BME280;64102;48.628;9.002;2023-01-15T10:51:39;95245.31;;;3.18;92.05
75521;BME280;64102;48.628;9.002;2023-01-15T10:54:23;95240.94;;;3.20;92.04
75521;BME280;64102;48.628;9.002;2023-01-15T10:56:57;95236.66;;;3.21;91.51
75521;BME280;64102;48.628;9.002;2023-01-15T10:59:59;95238.16;;;3.12;91.16
75521;BME280;64102;48.628;9.002;2023-01-15T11:02:36;95247.72;;;3.08;91.35
75521;BME280;64102;48.628;9.002;2023-01-15T11:05:03;95245.91;;;3.10;91.33
75521;BME280;64102;48.628;9.002;2023-01-15T11:07:38;95256.22;;;3.20;91.05
75521;BME280;64102;48.628;9.002;2023-01-15T11:10:07;95259.78;;;3.17;90.90
75521;BME280;64102;48.628;9.002;2023-01-15T11:12:35;95267.91;;;3.23;91.63
75521;BME280;64102;48.628;9.002;2023-01-15T11:15:24;95269.78;;;3.21;91.93
75521;BME280;64102;48.628;9.002;2023-01-15T11:18:22;95272.69;;;3.16;91.13
75521;BME280;64102;48.628;9.002;2023-01-15T11:21:16;95285.41;;;3.16;91.21
75521;BME280;64102;48.628;9.002;2023-01-15T11:23:43;95297.69;;;3.11;91.12
75521;BME280;64102;48.628;9.002;2023-01-15T11:26:16;95292.22;;;3.04;91.56
75521;BME280;64102;48.628;9.002;2023-01-15T11:28:44;95305.16;;;2.90;91.61
75521;BME280;64102;48.628;9.002;2023-01-15T11:31:12;95324.44;;;2.70;92.07
75521;BME280;64102;48.628;9.002;2023-01-15T11:33:38;95337.50;;;2.66;91.79
75521;BME280;64102;48.628;9.002;2023-01-15T11:36:06;95331.91;;;2.61;92.24
75521;BME280;64102;48.628;9.002;2023-01-15T11:38:46;95337.72;;;2.63;91.50
75521;BME280;64102;48.628;9.002;2023-01-15T11:43:56;95329.16;;;2.40;91.03
75521;BME280;64102;48.628;9.002;2023-01-15T11:46:40;95324.56;;;2.33;90.61
75521;BME280;64102;48.628;9.002;2023-01-15T11:49:24;95329.31;;;2.26;89.70
75521;BME280;64102;48.628;9.002;2023-01-15T11:52:23;95322.81;;;2.22;90.04
75521;BME280;64102;48.628;9.002;2023-01-15T11:54:53;95326.03;;;2.24;90.25
75521;BME280;64102;48.628;9.002;2023-01-15T11:57:25;95333.78;;;2.22;90.33
75521;BME280;64102;48.628;9.002;2023-01-15T11:59:52;95341.94;;;2.15;89.98
75521;BME280;64102;48.628;9.002;2023-01-15T12:04:54;95339.91;;;2.20;90.33
75521;BME280;64102;48.628;9.002;2023-01-15T12:07:23;95346.41;;;2.24;90.09
75521;BME280;64102;48.628;9.002;2023-01-15T12:10:23;95349.88;;;2.23;90.41
75521;BME280;64102;48.628;9.002;2023-01-15T12:13:50;95350.56;;;2.25;91.22
75521;BME280;64102;48.628;9.002;2023-01-15T12:16:43;95348.94;;;2.24;90.46
75521;BME280;64102;48.628;9.002;2023-01-15T12:19:36;95360.97;;;2.22;90.38
75521;BME280;64102;48.628;9.002;2023-01-15T12:27:54;95358.22;;;2.25;89.16
75521;BME280;64102;48.628;9.002;2023-01-15T12:33:19;95343.34;;;2.19;88.52
75521;BME280;64102;48.628;9.002;2023-01-15T12:35:54;95335.41;;;2.23;89.77
75521;BME280;64102;48.628;9.002;2023-01-15T12:41:11;95343.16;;;2.22;89.03
75521;BME280;64102;48.628;9.002;2023-01-15T12:43:37;95338.06;;;2.22;88.96
75521;BME280;64102;48.628;9.002;2023-01-15T12:46:27;95338.25;;;2.19;87.47
75521;BME280;64102;48.628;9.002;2023-01-15T12:51:48;95347.66;;;2.18;87.29
75521;BME280;64102;48.628;9.002;2023-01-15T12:54:18;95355.16;;;2.20;87.51
75521;BME280;64102;48.628;9.002;2023-01-15T12:57:11;95358.94;;;2.14;88.20
75521;BME280;64102;48.628;9.002;2023-01-15T13:02:32;95369.53;;;2.21;88.85
75521;BME280;64102;48.628;9.002;2023-01-15T13:05:22;95349.88;;;2.23;88.15
75521;BME280;64102;48.628;9.002;2023-01-15T13:10:27;95362.44;;;2.37;87.38
75521;BME280;64102;48.628;9.002;2023-01-15T13:12:59;95350.72;;;2.47;87.60
75521;BME280;64102;48.628;9.002;2023-01-15T13:15:29;95349.69;;;2.50;86.44
75521;BME280;64102;48.628;9.002;2023-01-15T13:20:50;95360.03;;;2.59;85.77
75521;BME280;64102;48.628;9.002;2023-01-15T13:31:51;95364.47;;;2.68;83.98
75521;BME280;64102;48.628;9.002;2023-01-15T13:34:28;95378.59;;;2.72;82.66
75521;BME280;64102;48.628;9.002;2023-01-15T13:36:58;95376.69;;;2.76;82.84
75521;BME280;64102;48.628;9.002;2023-01-15T13:39:36;95386.53;;;2.81;82.38
75521;BME280;64102;48.628;9.002;2023-01-15T13:42:03;95393.25;;;2.82;82.71
75521;BME280;64102;48.628;9.002;2023-01-15T13:44:50;95404.84;;;2.86;82.10
75521;BME280;64102;48.628;9.002;2023-01-15T13:47:25;95404.66;;;2.89;82.57
75521;BME280;64102;48.628;9.002;2023-01-15T13:49:57;95400.47;;;2.88;82.57
75521;BME280;64102;48.628;9.002;2023-01-15T13:52:32;95408.44;;;3.07;81.06
75521;BME280;64102;48.628;9.002;2023-01-15T13:55:08;95412.28;;;3.47;79.72
75521;BME280;64102;48.628;9.002;2023-01-15T13:57:39;95414.13;;;3.45;78.69
75521;BME280;64102;48.628;9.002;2023-01-15T14:00:24;95412.13;;;4.39;76.62
75521;BME280;64102;48.628;9.002;2023-01-15T14:02:52;95407.63;;;5.70;70.77
75521;BME280;64102;48.628;9.002;2023-01-15T14:07:54;95406.19;;;6.28;66.46
75521;BME280;64102;48.628;9.002;2023-01-15T14:10:24;95398.31;;;6.51;65.57
75521;BME280;64102;48.628;9.002;2023-01-15T14:18:37;95403.47;;;5.06;70.46
75521;BME280;64102;48.628;9.002;2023-01-15T14:24:48;95410.53;;;5.45;68.65
75521;BME280;64102;48.628;9.002;2023-01-15T14:27:45;95418.16;;;5.35;69.93
75521;BME280;64102;48.628;9.002;2023-01-15T14:33:10;95417.72;;;5.51;69.41
75521;BME280;64102;48.628;9.002;2023-01-15T14:35:44;95426.63;;;5.77;68.52
75521;BME280;64102;48.628;9.002;2023-01-15T14:38:21;95412.66;;;5.61;68.34
75521;BME280;64102;48.628;9.002;2023-01-15T14:40:55;95416.63;;;5.54;68.51
75521;BME280;64102;48.628;9.002;2023-01-15T14:43:28;95423.94;;;5.58;69.09
75521;BME280;64102;48.628;9.002;2023-01-15T14:45:55;95424.75;;;5.59;68.83
75521;BME280;64102;48.628;9.002;2023-01-15T14:50:53;95413.88;;;5.25;70.56
75521;BME280;64102;48.628;9.002;2023-01-15T14:53:51;95419.16;;;5.12;70.72
75521;BME280;64102;48.628;9.002;2023-01-15T14:56:18;95417.31;;;4.71;71.72
75521;BME280;64102;48.628;9.002;2023-01-15T15:04:31;95412.69;;;3.30;78.00
75521;BME280;64102;48.628;9.002;2023-01-15T15:07:04;95417.97;;;3.16;78.12
75521;BME280;64102;48.628;9.002;2023-01-15T15:09:40;95406.81;;;3.06;79.35